Time;durP1;ratioP1;P1;durP2;ratioP2;P2;SDS_P1;SDS_P2;PMS_P1;PMS_P2;Temp;Humidity;BMP_temperature;BMP_pressure;BME280_temperature;BME280_humidity;BME280_pressure;Samples;Min_cycle;Max_cycle;Signal;HPM_P1;HPM_P2
2021/12/05 00:17:35;;;;;;;53.63;25.63;;;;;;;-0.16;100.00;99300.56;5283002;55;1138987;-85
2021/12/05 00:22:47;;;;;;;49.93;23.73;;;;;;;-0.18;100.00;99303.70;5216055;55;1139139;-85
2021/12/05 00:27:25;;;;;;;48.50;23.75;;;;;;;-0.16;100.00;99309.66;5242466;55;1139038;-88
2021/12/05 00:43:16;;;;;;;48.23;21.90;;;;;;;-0.20;100.00;99304.70;5067352;57;1136879;-85
2021/12/05 01:14:21;;;;;;;46.35;21.90;;;;;;;-0.27;100.00;99304.62;5127231;56;1141259;-86
2021/12/05 01:19:15;;;;;;;51.10;23.10;;;;;;;-0.30;100.00;99308.22;5190994;56;1141079;-84
2021/12/05 01:24:45;;;;;;;32.80;14.90;;;;;;;-0.30;100.00;99312.12;5155955;56;1141166;-84
2021/12/05 01:46:03;;;;;;;50.67;22.50;;;;;;;-0.43;100.00;99290.31;5212801;56;1140360;-84
2021/12/05 02:38:48;;;;;;;58.57;27.13;;;;;;;-0.47;100.00;99265.44;5233065;55;1139005;-87
2021/12/05 02:43:30;;;;;;;55.65;24.60;;;;;;;-0.46;100.00;99260.63;5219456;56;1141078;-86
2021/12/05 02:48:36;;;;;;;60.03;25.77;;;;;;;-0.45;100.00;99270.91;5109899;56;1141132;-86
2021/12/05 02:53:51;;;;;;;44.83;20.83;;;;;;;-0.44;100.00;99272.58;5227200;56;1141038;-85
2021/12/05 02:58:59;;;;;;;58.60;27.10;;;;;;;-0.49;100.00;99270.71;5210756;56;1140963;-85
2021/12/05 03:04:04;;;;;;;50.37;24.10;;;;;;;-0.47;100.00;99271.48;5204317;56;1140925;-85
2021/12/05 03:09:14;;;;;;;53.43;28.00;;;;;;;-0.46;100.00;99269.23;5233260;55;1141130;-85
2021/12/05 03:14:21;;;;;;;59.13;26.83;;;;;;;-0.46;100.00;99282.21;5212460;56;1141315;-85
2021/12/05 03:19:28;;;;;;;61.95;28.15;;;;;;;-0.47;100.00;99287.52;5203330;56;1141146;-85
2021/12/05 03:24:35;;;;;;;59.33;27.53;;;;;;;-0.48;100.00;99281.48;5197338;56;1141076;-84
2021/12/05 03:29:41;;;;;;;67.37;28.13;;;;;;;-0.48;100.00;99289.73;5210032;55;1141054;-84
2021/12/05 03:34:47;;;;;;;57.43;26.90;;;;;;;-0.52;100.00;99283.84;5214227;55;1141212;-85
2021/12/05 03:39:54;;;;;;;54.20;22.60;;;;;;;-0.51;100.00;99284.23;5178632;55;1141146;-84
2021/12/05 03:45:00;;;;;;;55.47;24.20;;;;;;;-0.48;100.00;99281.94;5200810;56;1141042;-84
2021/12/05 03:50:11;;;;;;;56.27;24.33;;;;;;;-0.47;100.00;99292.25;5180102;56;1141101;-84
2021/12/05 03:55:21;;;;;;;60.20;26.00;;;;;;;-0.45;100.00;99291.68;5171998;56;1141180;-83
2021/12/05 04:00:31;;;;;;;61.10;27.67;;;;;;;-0.43;100.00;99292.45;5155622;56;1141218;-86
2021/12/05 04:05:40;;;;;;;57.53;24.37;;;;;;;-0.40;100.00;99282.36;5064985;58;1141055;-86
2021/12/05 04:10:51;;;;;;;57.03;26.13;;;;;;;-0.38;100.00;99287.86;5068416;58;1141456;-84
2021/12/05 04:16:01;;;;;;;57.87;25.43;;;;;;;-0.34;100.00;99292.44;5068122;58;1141070;-84
2021/12/05 04:21:08;;;;;;;55.30;23.07;;;;;;;-0.32;100.00;99296.27;5189571;56;1141102;-84
2021/12/05 04:26:13;;;;;;;56.02;26.02;;;;;;;-0.30;100.00;99286.59;5143618;57;1141263;-84
2021/12/05 04:31:21;;;;;;;52.75;23.77;;;;;;;-0.27;100.00;99283.84;5132225;56;1141132;-85
2021/12/05 04:36:28;;;;;;;57.80;25.67;;;;;;;-0.22;100.00;99297.44;5131347;57;1141159;-84
2021/12/05 04:41:34;;;;;;;54.85;22.40;;;;;;;-0.23;100.00;99296.60;5131173;57;1141250;-84
2021/12/05 04:46:41;;;;;;;58.43;26.10;;;;;;;-0.21;100.00;99305.62;5131129;57;1141097;-84
2021/12/05 04:51:47;;;;;;;60.78;26.87;;;;;;;-0.22;100.00;99302.18;5130423;57;1141164;-84
2021/12/05 04:56:53;;;;;;;55.17;24.77;;;;;;;-0.20;100.00;99299.50;5131326;57;1141323;-85
2021/12/05 05:02:03;;;;;;;56.60;24.87;;;;;;;-0.18;100.00;99311.50;5037052;58;1141160;-84
2021/12/05 05:07:17;;;;;;;48.60;23.80;;;;;;;-0.17;99.83;99316.23;5132076;57;1141165;-84
2021/12/05 05:12:21;;;;;;;61.37;25.30;;;;;;;-0.15;99.85;99320.86;5132154;57;1137416;-84
2021/12/05 05:17:26;;;;;;;56.90;24.73;;;;;;;-0.15;99.23;99332.55;5165068;56;1136923;-83
2021/12/05 05:22:46;;;;;;;60.40;24.53;;;;;;;-0.15;99.46;99327.36;5225422;56;1136836;-85
2021/12/05 05:49:17;;;;;;;68.15;27.73;;;;;;;0.04;98.89;99364.45;5239946;55;1136971;-83
2021/12/05 05:54:21;;;;;;;63.23;25.12;;;;;;;0.07;98.83;99365.60;5240222;55;1136872;-84
2021/12/05 05:59:33;;;;;;;49.00;22.87;;;;;;;0.06;98.72;99374.31;5239698;55;1136949;-83
2021/12/05 06:04:34;;;;;;;55.40;24.37;;;;;;;0.06;98.52;99383.41;5240020;55;1136933;-85
2021/12/05 06:09:40;;;;;;;57.37;24.70;;;;;;;0.05;98.19;99384.79;5240035;55;1136901;-84
2021/12/05 06:14:45;;;;;;;56.97;24.90;;;;;;;-0.01;98.27;99384.22;5239624;56;1137184;-84
2021/12/05 06:19:53;;;;;;;61.57;25.47;;;;;;;-0.01;98.54;99393.31;5188692;56;1139092;-85
2021/12/05 06:25:00;;;;;;;68.67;28.03;;;;;;;-0.03;98.48;99406.00;5105601;57;1138963;-85
2021/12/05 06:30:12;;;;;;;60.60;27.27;;;;;;;-0.04;98.77;99408.22;5114773;57;1139034;-86
2021/12/05 06:46:16;;;;;;;42.00;20.17;;;;;;;-0.07;99.55;99427.86;5142349;57;1139115;-84
2021/12/05 06:51:27;;;;;;;61.13;25.93;;;;;;;-0.07;99.76;99440.86;5145593;56;1139168;-84
2021/12/05 06:56:32;;;;;;;;;;;;;;;-0.09;99.75;99438.34;5149236;56;1139034;-85
2021/12/05 07:01:38;;;;;;;57.80;22.83;;;;;;;-0.12;100.00;99442.38;5148373;56;972182;-83
2021/12/05 07:06:44;;;;;;;56.28;23.47;;;;;;;-0.09;100.00;99450.48;5145270;56;1139132;-85
2021/12/05 07:22:41;;;;;;;60.27;25.37;;;;;;;-0.28;100.00;99459.66;5229952;56;1141094;-82
2021/12/05 07:43:38;;;;;;;58.38;26.82;;;;;;;-0.27;100.00;99469.59;5229585;56;1139026;-82
2021/12/05 07:48:46;;;;;;;59.83;26.30;;;;;;;-0.26;100.00;99474.72;5224358;56;1139198;-87
2021/12/05 07:54:15;;;;;;;63.07;27.60;;;;;;;-0.23;100.00;99484.97;5222355;56;1139001;-84
2021/12/05 08:15:21;;;;;;;;;;;;;;;-0.12;100.00;99498.25;5228997;56;1141357;-81
2021/12/05 08:20:30;;;;;;;324.20;144.67;;;;;;;-0.12;100.00;99507.80;5231009;56;974144;-84
2021/12/05 08:25:40;;;;;;;103.78;50.75;;;;;;;-0.13;100.00;99503.52;5228174;56;1143287;-84
2021/12/05 08:30:57;;;;;;;324.17;160.97;;;;;;;-0.14;100.00;99502.69;5221602;56;1143512;-83
2021/12/05 09:24:33;;;;;;;79.20;34.53;;;;;;;0.11;100.00;99535.26;4990008;58;1136919;-79
2021/12/05 09:51:15;;;;;;;69.80;33.00;;;;;;;0.20;100.00;99557.72;5222805;56;1138991;-86
2021/12/05 10:07:00;;;;;;;236.47;107.10;;;;;;;0.22;100.00;99563.69;5225828;56;1138993;-83
2021/12/05 10:38:59;;;;;;;62.17;31.53;;;;;;;0.40;100.00;99574.92;5153803;57;1136975;-83
2021/12/05 10:44:01;;;;;;;69.30;31.63;;;;;;;0.40;100.00;99574.08;5194244;56;1136923;-80
2021/12/05 10:49:11;;;;;;;67.50;32.53;;;;;;;0.43;100.00;99568.27;5160502;57;1137034;-82
2021/12/05 10:54:22;;;;;;;51.50;24.53;;;;;;;0.49;100.00;99569.70;5181805;57;1137201;-81
2021/12/05 10:59:37;;;;;;;81.02;38.35;;;;;;;0.51;100.00;99570.00;5170503;57;1136957;-81
2021/12/05 11:04:49;;;;;;;69.30;34.37;;;;;;;0.50;100.00;99567.47;5130893;57;1137088;-84
2021/12/05 11:09:59;;;;;;;70.73;33.43;;;;;;;0.50;100.00;99563.11;5145561;57;1137239;-80
2021/12/05 11:15:14;;;;;;;75.97;35.77;;;;;;;0.48;100.00;99579.72;5113964;57;1134867;-84
2021/12/05 11:20:34;;;;;;;61.87;31.30;;;;;;;0.48;100.00;99581.86;5108459;57;1139617;-85
2021/12/05 11:25:35;;;;;;;59.97;26.90;;;;;;;0.51;100.00;99572.60;5098917;58;1139357;-76
2021/12/05 11:30:43;;;;;;;71.90;33.40;;;;;;;0.51;100.00;99590.81;5012709;59;1139233;-80
2021/12/05 11:36:01;;;;;;;74.97;36.13;;;;;;;0.53;100.00;99594.64;5060966;57;1139283;-81
2021/12/05 11:41:14;;;;;;;68.20;34.00;;;;;;;0.61;100.00;99597.70;5151367;56;1138991;-79
2021/12/05 11:46:34;;;;;;;77.50;34.97;;;;;;;0.64;100.00;99594.46;5156646;56;1139003;-75
2021/12/05 11:51:56;;;;;;;56.43;24.30;;;;;;;0.69;100.00;99594.23;5164647;56;1138908;-86
2021/12/05 11:57:12;;;;;;;347.47;135.83;;;;;;;0.73;100.00;99598.83;5182004;56;1139188;-87
2021/12/05 12:02:30;;;;;;;708.63;336.20;;;;;;;0.70;100.00;99613.67;5231187;56;1143371;-83
2021/12/05 12:07:49;;;;;;;222.65;121.50;;;;;;;0.67;100.00;99615.13;5232126;56;1143091;-84
2021/12/05 12:13:05;;;;;;;69.70;36.33;;;;;;;0.67;100.00;99631.20;5232278;56;1143222;-86
2021/12/05 12:18:23;;;;;;;66.00;33.70;;;;;;;0.64;100.00;99632.65;5187346;56;1138936;-84
2021/12/05 12:23:23;;;;;;;68.17;36.50;;;;;;;0.66;100.00;99632.11;5170653;56;1138831;-81
2021/12/05 12:28:29;;;;;;;68.83;35.10;;;;;;;0.63;100.00;99634.86;5162264;56;1139199;-85
2021/12/05 12:33:45;;;;;;;89.03;42.47;;;;;;;0.61;100.00;99641.45;5193526;56;1139117;-84
2021/12/05 12:38:52;;;;;;;83.90;40.33;;;;;;;0.55;100.00;99637.03;5103751;56;1136877;-81
2021/12/05 12:44:04;;;;;;;117.27;49.93;;;;;;;0.53;100.00;99633.66;5091687;57;1136924;-86
2021/12/05 12:49:23;;;;;;;123.80;56.60;;;;;;;0.52;100.00;99628.92;5058642;57;1138930;-87
2021/12/05 13:00:11;;;;;;;191.13;92.57;;;;;;;0.48;100.00;99627.84;5109684;57;1138954;-88
2021/12/05 13:10:43;;;;;;;99.73;45.67;;;;;;;0.45;100.00;99626.27;5104826;58;1141309;-88
2021/12/05 13:15:59;;;;;;;125.85;64.70;;;;;;;0.44;100.00;99623.27;5092144;58;1138903;-81
2021/12/05 13:21:11;;;;;;;117.93;59.73;;;;;;;0.40;100.00;99629.55;5089288;58;1141181;-83
2021/12/05 13:26:38;;;;;;;106.57;47.67;;;;;;;0.37;100.00;99636.19;5063167;58;1140963;-83
2021/12/05 13:31:53;;;;;;;114.17;53.60;;;;;;;0.40;100.00;99644.30;5064391;58;1141103;-83
2021/12/05 13:37:09;;;;;;;122.37;60.13;;;;;;;0.41;100.00;99649.44;5068567;57;1141205;-81
2021/12/05 13:42:47;;;;;;;125.43;60.40;;;;;;;0.44;100.00;99651.05;5135609;57;1141403;-84
2021/12/05 13:47:58;;;;;;;131.27;64.27;;;;;;;0.42;100.00;99674.53;5135462;56;1141450;-82
2021/12/05 13:53:09;;;;;;;109.33;51.60;;;;;;;0.47;100.00;99680.78;5186733;56;1141031;-80
2021/12/05 13:58:42;;;;;;;114.03;58.53;;;;;;;0.46;100.00;99687.74;5182113;56;1141249;-82
2021/12/05 14:04:16;;;;;;;137.87;71.30;;;;;;;0.47;100.00;99699.83;5233989;56;1141046;-78
2021/12/05 14:09:32;;;;;;;97.13;46.07;;;;;;;0.48;100.00;99713.69;5221530;56;1139186;-81
2021/12/05 14:14:54;;;;;;;108.63;53.10;;;;;;;0.42;100.00;99714.84;5251047;55;1136902;-82
2021/12/05 14:20:20;;;;;;;96.23;47.00;;;;;;;0.42;100.00;99723.95;5254449;55;1139211;-82
2021/12/05 14:25:29;;;;;;;97.73;48.73;;;;;;;0.44;100.00;99723.42;5244017;56;1136960;-83
2021/12/05 14:30:38;;;;;;;99.23;46.73;;;;;;;0.42;100.00;99730.91;5244787;56;1137043;-83
2021/12/05 14:35:44;;;;;;;148.23;67.13;;;;;;;0.43;100.00;99732.14;5232717;55;1134808;-83
2021/12/05 14:40:50;;;;;;;98.97;43.17;;;;;;;0.43;100.00;99740.40;5231563;56;21191;-83
2021/12/05 14:45:59;;;;;;;100.77;49.77;;;;;;;0.40;100.00;99752.24;5208401;56;1134747;-83
2021/12/05 14:51:06;;;;;;;94.97;46.93;;;;;;;0.43;100.00;99759.45;5159581;57;1140489;-83
2021/12/05 14:56:12;;;;;;;84.23;39.37;;;;;;;0.41;100.00;99763.03;5047271;58;1138983;-86
2021/12/05 15:01:20;;;;;;;82.53;35.80;;;;;;;0.41;100.00;99771.69;5039718;58;1139054;-85
2021/12/05 15:06:35;;;;;;;82.50;37.10;;;;;;;0.41;100.00;99774.28;5016544;57;1138971;-84
2021/12/05 15:11:41;;;;;;;106.80;47.77;;;;;;;0.38;100.00;99779.63;5011651;57;1138948;-83
2021/12/05 15:17:03;;;;;;;102.90;46.27;;;;;;;0.38;100.00;99786.59;4981325;57;1141077;-82
2021/12/05 15:22:12;;;;;;;117.63;54.07;;;;;;;0.41;100.00;99787.29;5056141;58;1141145;-83
2021/12/05 15:27:21;;;;;;;93.93;41.47;;;;;;;0.42;100.00;99801.98;4974618;59;1140559;-83
2021/12/05 15:32:30;;;;;;;94.63;43.60;;;;;;;0.41;100.00;99808.55;4967546;58;1139001;-83
2021/12/05 15:37:36;;;;;;;164.93;72.10;;;;;;;0.41;100.00;99816.36;4935379;58;1138991;-83
2021/12/05 15:42:42;;;;;;;71.73;34.30;;;;;;;0.41;100.00;99826.77;5008665;58;1140535;-82
2021/12/05 15:47:49;;;;;;;75.20;37.03;;;;;;;0.41;100.00;99836.71;4981041;58;1138995;-82
2021/12/05 15:53:02;;;;;;;71.70;33.77;;;;;;;0.43;100.00;99841.84;4958655;58;1138947;-83
2021/12/05 15:58:24;;;;;;;62.27;32.40;;;;;;;0.46;100.00;99835.20;4920941;59;1138944;-83
2021/12/05 16:03:47;;;;;;;60.10;29.93;;;;;;;0.42;100.00;99826.70;4916160;59;1139194;-83
2021/12/05 16:08:54;;;;;;;56.17;24.87;;;;;;;0.40;100.00;99828.52;4865504;59;1139093;-84
2021/12/05 16:14:00;;;;;;;34.65;16.87;;;;;;;0.41;100.00;99842.38;4805142;60;1138980;-82
2021/12/05 16:19:13;;;;;;;49.97;24.67;;;;;;;0.39;100.00;99841.59;4867304;59;1139033;-85
2021/12/05 16:24:21;;;;;;;48.25;26.65;;;;;;;0.40;100.00;99841.98;5007609;58;1138970;-84
2021/12/05 16:29:28;;;;;;;37.47;18.87;;;;;;;0.38;100.00;99843.34;4944936;59;1139213;-81
2021/12/05 16:34:37;;;;;;;54.33;25.83;;;;;;;0.37;100.00;99846.86;4961052;59;1136861;-84
2021/12/05 16:39:48;;;;;;;62.27;31.73;;;;;;;0.36;100.00;99851.68;5064159;57;1136898;-80
2021/12/05 16:44:58;;;;;;;35.93;19.87;;;;;;;0.38;100.00;99859.41;5040757;57;1136955;-81
2021/12/05 16:50:10;;;;;;;48.02;25.82;;;;;;;0.37;100.00;99854.66;4926436;59;1136933;-81
2021/12/05 16:55:26;;;;;;;130.23;61.07;;;;;;;0.37;100.00;99853.83;4941384;59;1137106;-81
2021/12/05 17:00:33;;;;;;;49.53;26.83;;;;;;;0.33;100.00;99844.02;5081054;57;1138948;-79
2021/12/05 17:05:48;;;;;;;37.50;17.63;;;;;;;0.31;100.00;99849.28;5083588;57;1137068;-81
2021/12/05 17:11:02;;;;;;;44.93;23.70;;;;;;;0.30;100.00;99855.42;5106903;56;1136920;-81
2021/12/05 17:16:13;;;;;;;35.58;17.32;;;;;;;0.31;100.00;99858.38;5124301;56;1136900;-78
2021/12/05 17:21:26;;;;;;;45.37;22.93;;;;;;;0.29;100.00;99859.39;5002964;58;1134853;-80
2021/12/05 17:26:42;;;;;;;33.43;17.43;;;;;;;0.26;100.00;99861.67;4980518;58;1138955;-79
2021/12/05 17:32:00;;;;;;;35.27;18.73;;;;;;;0.32;100.00;99876.13;4935703;58;1138966;-80
2021/12/05 17:37:10;;;;;;;49.03;25.33;;;;;;;0.33;100.00;99882.56;5064744;58;1139036;-79
2021/12/05 17:42:20;;;;;;;42.13;20.03;;;;;;;0.39;100.00;99906.62;5066238;57;1139025;-80
2021/12/05 17:47:28;;;;;;;34.50;17.67;;;;;;;0.46;100.00;99923.65;5043498;57;1138939;-78
2021/12/05 17:52:34;;;;;;;56.03;29.00;;;;;;;0.44;100.00;99934.13;4981104;58;1139015;-79
2021/12/05 17:57:52;;;;;;;48.57;26.87;;;;;;;0.45;100.00;99944.92;5043048;58;1139270;-79
2021/12/05 18:02:53;;;;;;;50.30;27.23;;;;;;;0.49;100.00;99956.00;5020025;58;1139037;-79
2021/12/05 18:07:59;;;;;;;49.03;25.40;;;;;;;0.48;100.00;99959.06;4951428;58;1138981;-79
2021/12/05 18:13:10;;;;;;;50.77;25.70;;;;;;;0.47;100.00;99960.42;5011832;58;1138981;-80
2021/12/05 18:18:16;;;;;;;51.80;24.57;;;;;;;0.39;100.00;99971.65;4935959;58;1139014;-79
2021/12/05 18:23:23;;;;;;;55.93;28.00;;;;;;;0.28;100.00;99971.67;4886359;60;1139007;-80
2021/12/05 18:28:30;;;;;;;45.57;22.17;;;;;;;0.23;100.00;99980.13;4923133;59;1139146;-80
2021/12/05 18:33:36;;;;;;;54.27;27.00;;;;;;;0.20;100.00;99976.81;5002666;58;1138968;-82
2021/12/05 18:38:41;;;;;;;52.80;27.33;;;;;;;0.14;100.00;99987.50;5026468;57;1139011;-80
2021/12/05 18:43:49;;;;;;;48.23;24.37;;;;;;;0.11;100.00;99998.88;5054424;56;1138972;-80
2021/12/05 18:48:55;;;;;;;57.13;28.00;;;;;;;0.11;100.00;100009.72;5019984;58;1139226;-81
2021/12/05 18:54:00;;;;;;;53.40;24.70;;;;;;;0.12;100.00;100009.66;5022855;58;1141074;-80
2021/12/05 18:59:07;;;;;;;59.30;31.20;;;;;;;0.16;100.00;100007.75;5037311;58;1141084;-81
2021/12/05 19:04:24;;;;;;;37.13;20.07;;;;;;;0.16;100.00;100008.59;5035898;58;1141231;-81
2021/12/05 19:14:52;;;;;;;48.60;22.93;;;;;;;0.13;100.00;100019.16;4957536;58;974379;-81
2021/12/05 19:20:03;;;;;;;55.73;27.43;;;;;;;0.10;100.00;100017.13;5064610;57;1139080;-76
2021/12/05 19:25:13;;;;;;;56.63;29.67;;;;;;;0.08;100.00;100016.34;5083144;57;1139069;-77
2021/12/05 19:30:30;;;;;;;63.27;31.00;;;;;;;0.08;100.00;100019.80;5050962;57;1139263;-77
2021/12/05 19:35:38;;;;;;;60.27;31.17;;;;;;;0.07;100.00;100023.76;5107097;57;1139033;-77
2021/12/05 19:40:44;;;;;;;52.83;22.53;;;;;;;0.02;100.00;100025.70;5159243;56;1138914;-78
2021/12/05 19:45:51;;;;;;;67.67;33.40;;;;;;;0.02;100.00;100029.14;5181145;57;1138965;-77
2021/12/05 19:50:59;;;;;;;70.53;35.90;;;;;;;0.00;100.00;100034.40;5133576;57;1139002;-77
2021/12/05 19:56:07;;;;;;;58.33;27.00;;;;;;;0.05;100.00;100036.81;5097961;57;1138973;-78
2021/12/05 20:01:13;;;;;;;60.57;30.53;;;;;;;0.09;100.00;100038.38;5163881;56;1138988;-80
2021/12/05 20:06:21;;;;;;;77.13;35.70;;;;;;;0.07;100.00;100043.25;5198478;56;1138938;-79
2021/12/05 20:11:27;;;;;;;78.83;37.23;;;;;;;0.04;100.00;100055.92;5157641;56;1139006;-81
2021/12/05 20:16:32;;;;;;;74.30;34.20;;;;;;;0.02;100.00;100052.54;5121895;57;1138915;-81
2021/12/05 20:21:43;;;;;;;75.00;34.57;;;;;;;0.06;100.00;100068.86;5125098;57;1138893;-79
2021/12/05 20:26:51;;;;;;;46.87;23.20;;;;;;;0.10;100.00;100067.83;5119636;57;1139368;-80
2021/12/05 20:31:56;;;;;;;60.37;28.07;;;;;;;0.13;100.00;100071.61;5157796;56;1136971;-79
2021/12/05 20:37:02;;;;;;;61.97;31.60;;;;;;;0.09;100.00;100085.19;5165806;56;21123;-81
2021/12/05 20:42:08;;;;;;;74.10;30.27;;;;;;;0.08;100.00;100085.25;5142853;57;1136822;-80
2021/12/05 20:47:14;;;;;;;58.73;27.47;;;;;;;0.03;100.00;100083.28;5076656;57;1141044;-81
2021/12/05 20:52:20;;;;;;;81.17;35.40;;;;;;;-0.02;100.00;100075.69;5067432;57;1141044;-80
2021/12/05 20:57:26;;;;;;;109.83;50.77;;;;;;;0.03;100.00;100071.13;5049871;58;1143054;-81
2021/12/05 21:02:31;;;;;;;87.60;38.40;;;;;;;0.06;100.00;100085.30;5049668;58;1143330;-79
2021/12/05 21:07:45;;;;;;;114.10;44.03;;;;;;;0.08;100.00;100089.99;5049594;58;1141272;-80
2021/12/05 21:12:44;;;;;;;122.50;47.47;;;;;;;0.11;100.00;100102.88;5048160;58;1143336;-80
2021/12/05 21:17:50;;;;;;;77.13;36.07;;;;;;;0.16;100.00;100105.26;5087063;57;1143112;-78
2021/12/05 21:22:56;;;;;;;83.33;34.87;;;;;;;0.16;100.00;100103.50;5132693;57;1141350;-79
2021/12/05 21:28:02;;;;;;;81.33;36.63;;;;;;;0.11;100.00;100093.77;5132665;57;1141126;-81
2021/12/05 21:33:12;;;;;;;74.50;32.97;;;;;;;0.13;100.00;100101.06;5099318;57;1140996;-79
2021/12/05 21:38:23;;;;;;;94.03;39.67;;;;;;;0.12;100.00;100094.16;5049604;57;1141058;-78
2021/12/05 21:43:29;;;;;;;65.47;31.10;;;;;;;0.15;100.00;100103.14;5069199;57;1141148;-81
2021/12/05 21:48:35;;;;;;;80.47;34.43;;;;;;;0.13;100.00;100103.66;5109422;57;1141007;-79
2021/12/05 21:53:46;;;;;;;140.37;69.13;;;;;;;0.13;100.00;100102.81;5109419;57;1141167;-79
2021/12/05 21:58:52;;;;;;;72.80;33.40;;;;;;;0.14;100.00;100109.25;5109650;57;1143409;-82
2021/12/05 22:03:59;;;;;;;76.10;34.30;;;;;;;0.13;100.00;100111.91;5110017;57;1141060;-80
2021/12/05 22:09:05;;;;;;;69.27;33.07;;;;;;;0.11;100.00;100118.47;5109950;57;1141275;-78
2021/12/05 22:14:11;;;;;;;72.70;33.93;;;;;;;0.14;100.00;100125.30;5110043;57;1141318;-79
2021/12/05 22:19:18;;;;;;;59.77;28.73;;;;;;;0.09;100.00;100126.78;5160482;56;1141010;-80
2021/12/05 22:24:23;;;;;;;82.87;36.83;;;;;;;0.07;100.00;100131.65;5195022;56;1141321;-79
2021/12/05 22:29:29;;;;;;;76.27;36.17;;;;;;;0.00;100.00;100133.67;5194914;56;1141234;-79
2021/12/05 22:34:35;;;;;;;69.57;34.23;;;;;;;-0.06;100.00;100136.50;5156464;57;1141206;-81
2021/12/05 22:39:41;;;;;;;78.20;34.73;;;;;;;-0.10;100.00;100140.12;5159110;56;1143190;-80
2021/12/05 22:44:48;;;;;;;77.13;33.13;;;;;;;-0.14;100.00;100148.94;5172189;56;1143158;-82
2021/12/05 22:49:54;;;;;;;75.03;33.17;;;;;;;-0.15;100.00;100149.84;5147504;56;1143300;-81
2021/12/05 22:55:00;;;;;;;69.27;31.63;;;;;;;-0.12;100.00;100149.28;5134706;56;1143185;-81
2021/12/05 23:00:43;;;;;;;60.50;27.67;;;;;;;-0.10;100.00;100159.63;5145371;56;1143439;-79
2021/12/05 23:05:50;;;;;;;60.37;28.73;;;;;;;-0.05;100.00;100153.34;5192701;56;1143147;-81
2021/12/05 23:10:57;;;;;;;61.70;29.12;;;;;;;0.03;100.00;100167.77;5194688;56;1141101;-79
2021/12/05 23:16:05;;;;;;;71.37;33.07;;;;;;;-0.03;100.00;100165.83;5194954;56;1139013;-79
2021/12/05 23:21:18;;;;;;;72.30;31.93;;;;;;;0.00;100.00;100165.68;5194850;56;1141135;-80
2021/12/05 23:26:28;;;;;;;57.00;29.07;;;;;;;0.05;100.00;100165.95;5194483;56;1138982;-81
2021/12/05 23:31:35;;;;;;;64.47;31.63;;;;;;;0.05;100.00;100173.76;5194853;56;1139001;-81
2021/12/05 23:36:42;;;;;;;70.83;32.87;;;;;;;0.08;100.00;100166.69;5194854;56;1139255;-80
2021/12/05 23:41:52;;;;;;;68.73;30.83;;;;;;;0.18;100.00;100171.05;5239191;56;1139145;-80
2021/12/05 23:46:58;;;;;;;66.12;30.68;;;;;;;0.23;100.00;100173.02;5293152;55;1138951;-80
2021/12/05 23:52:05;;;;;;;64.70;31.12;;;;;;;0.23;100.00;100167.82;5321357;55;1139020;-81
2021/12/05 23:57:10;;;;;;;55.57;27.37;;;;;;;0.24;100.00;100156.06;5321531;55;1139036;-82
